Creston, Canada
Current Conditions -  °F | °C
As of 12:35 AM on Sunday 21 Dec 2014 (Local Time) from K65S Reporting Station
Light Snow Light Snow  
Wind Chill: 34°   Ceiling: 1300
Heat Index: 34°   Visibility: 5mi
Dew Point: 32°   Wind: 0mph
Humidity: 93%   Direction: NA
Pressure: 29.46"   Gusts: NA
Location:  49.1°N, 116.51°W
Report Text: K65S 210835Z AUTO 00000KT 5SM -SN BKN013 BKN029 01/00 A2946 RMK AO2 P0002
Loading
Personal Weather Stations






























Interactive Weather Map New forecast layout! Learn more

10-Day Weather Forecast

Advertisements
Track Severe Weather on mobile